Time;durP1;ratioP1;P1;durP2;ratioP2;P2;SDS_P1;SDS_P2;PMS_P1;PMS_P2;Temp;Humidity;BMP_temperature;BMP_pressure;BME280_temperature;BME280_humidity;BME280_pressure;Samples;Min_cycle;Max_cycle;Signal;HPM_P1;HPM_P2
2022/01/01 00:00:44;;;;;;;1999.90;999.90;;;13.90;99.90;;;;;;4975405;28;20174;-70
2022/01/01 00:03:09;;;;;;;1999.90;999.90;;;13.90;99.90;;;;;;4975228;28;20242;-70
2022/01/01 00:05:35;;;;;;;1999.90;999.90;;;13.90;99.90;;;;;;4973025;28;20167;-69
2022/01/01 00:08:03;;;;;;;1999.90;999.90;;;14.00;99.90;;;;;;4971864;28;20586;-70
2022/01/01 00:10:30;;;;;;;1999.90;999.90;;;13.90;99.90;;;;;;4971807;28;20496;-69
2022/01/01 00:12:55;;;;;;;1999.90;999.90;;;13.90;99.90;;;;;;4972051;28;20445;-70
2022/01/01 00:15:21;;;;;;;1999.90;999.90;;;13.90;99.90;;;;;;4971727;28;20410;-70
2022/01/01 00:17:47;;;;;;;1999.90;999.90;;;14.00;99.90;;;;;;4972089;28;20415;-69
2022/01/01 00:20:14;;;;;;;1999.90;999.90;;;13.90;99.90;;;;;;4971899;28;20685;-69
2022/01/01 00:22:40;;;;;;;1999.90;999.90;;;13.90;99.90;;;;;;4971671;28;20194;-69
2022/01/01 00:25:07;;;;;;;1999.90;999.90;;;13.90;99.90;;;;;;4971683;28;20412;-70
2022/01/01 00:27:33;;;;;;;1999.90;999.90;;;13.90;99.90;;;;;;4971848;28;20434;-70
2022/01/01 00:29:59;;;;;;;1999.90;999.90;;;13.90;99.90;;;;;;4971598;28;20515;-69
2022/01/01 00:32:25;;;;;;;1999.90;999.90;;;14.00;99.90;;;;;;4971412;28;20424;-69
2022/01/01 00:34:51;;;;;;;1999.90;999.90;;;13.90;99.90;;;;;;4971370;28;20432;-69
2022/01/01 00:37:17;;;;;;;1999.90;999.90;;;14.00;99.90;;;;;;4971898;28;20182;-68
2022/01/01 00:39:43;;;;;;;1999.90;999.90;;;14.00;99.90;;;;;;4971662;28;20168;-69
2022/01/01 00:42:09;;;;;;;1999.90;999.90;;;13.90;99.90;;;;;;4971635;28;20458;-67
2022/01/01 00:44:35;;;;;;;1999.90;999.90;;;14.00;99.90;;;;;;4971264;28;20459;-69
2022/01/01 00:47:02;;;;;;;1999.90;999.90;;;13.90;99.90;;;;;;4973500;28;20411;-70
2022/01/01 00:49:28;;;;;;;1999.90;999.90;;;14.00;99.90;;;;;;4973989;28;20169;-70
2022/01/01 00:51:53;;;;;;;1999.90;999.90;;;14.00;99.90;;;;;;4973522;28;20549;-71
2022/01/01 00:54:19;;;;;;;1999.90;999.90;;;13.90;99.90;;;;;;4974891;28;20406;-68
2022/01/01 00:56:45;;;;;;;1999.90;999.90;;;13.90;99.90;;;;;;4974480;28;20166;-70
2022/01/01 00:59:11;;;;;;;1999.90;999.90;;;14.00;99.90;;;;;;4974131;28;20247;-70
2022/01/01 01:01:37;;;;;;;1999.90;999.90;;;14.00;99.90;;;;;;4973588;28;20257;-70
2022/01/01 01:04:03;;;;;;;1999.90;999.90;;;14.00;99.90;;;;;;4973598;28;20190;-70
2022/01/01 01:06:29;;;;;;;1999.90;999.90;;;14.00;99.90;;;;;;4974342;28;20406;-70
2022/01/01 01:08:58;;;;;;;1999.90;999.90;;;14.00;99.90;;;;;;4974319;28;20820;-69
2022/01/01 01:11:24;;;;;;;1999.90;999.90;;;14.00;99.90;;;;;;4972035;28;20266;-67
2022/01/01 01:13:57;;;;;;;1999.90;999.90;;;14.00;99.90;;;;;;4971166;28;20475;-67
2022/01/01 01:16:23;;;;;;;1999.90;999.90;;;14.00;99.90;;;;;;4973971;28;20411;-68
2022/01/01 01:18:50;;;;;;;1999.90;999.90;;;14.00;99.90;;;;;;4976295;28;20407;-67
2022/01/01 01:21:15;;;;;;;1999.90;999.90;;;14.10;99.90;;;;;;4976646;28;20903;-68
2022/01/01 01:23:42;;;;;;;1999.90;999.90;;;14.10;99.90;;;;;;4975618;28;20434;-67
2022/01/01 01:26:08;;;;;;;1999.90;999.90;;;14.10;99.90;;;;;;4975177;28;20181;-68
2022/01/01 01:28:34;;;;;;;1999.90;999.90;;;14.00;99.90;;;;;;4976439;28;20438;-68
2022/01/01 01:31:00;;;;;;;1999.90;999.90;;;14.00;99.90;;;;;;4977034;28;20482;-68
2022/01/01 01:33:25;;;;;;;1999.90;999.90;;;14.00;99.90;;;;;;4977131;28;20433;-69
2022/01/01 01:35:51;;;;;;;1999.90;999.90;;;14.00;99.90;;;;;;4978468;28;20238;-69
2022/01/01 01:38:17;;;;;;;1999.90;999.90;;;14.00;99.90;;;;;;4978362;28;20168;-69
2022/01/01 01:40:42;;;;;;;1999.90;999.90;;;14.00;99.90;;;;;;4976758;28;20170;-69
2022/01/01 01:43:11;;;;;;;1999.90;999.90;;;14.10;99.90;;;;;;4978209;28;20628;-69
2022/01/01 01:45:37;;;;;;;1999.90;999.90;;;14.10;99.90;;;;;;4979101;28;20167;-68
2022/01/01 01:48:02;;;;;;;1999.90;999.90;;;14.10;99.90;;;;;;4979429;28;20420;-69
2022/01/01 01:50:28;;;;;;;1999.90;999.90;;;14.20;99.90;;;;;;4976770;28;20481;-69
2022/01/01 01:52:57;;;;;;;1999.90;999.90;;;14.20;99.90;;;;;;4978847;28;20192;-69
2022/01/01 01:55:23;;;;;;;1999.90;999.90;;;14.20;99.90;;;;;;4978964;28;20178;-68
2022/01/01 01:57:49;;;;;;;1999.90;999.90;;;14.20;99.90;;;;;;4977461;28;20780;-69
2022/01/01 02:03:03;;;;;;;1999.90;999.90;;;14.10;99.90;;;;;;4975987;28;20551;-68
2022/01/01 02:05:28;;;;;;;1999.90;999.90;;;14.20;99.90;;;;;;4974671;28;20410;-69
2022/01/01 02:07:56;;;;;;;1999.90;999.90;;;14.20;99.90;;;;;;4974828;28;20916;-69
2022/01/01 02:10:23;;;;;;;1999.90;999.90;;;14.20;99.90;;;;;;4976693;28;20448;-69
2022/01/01 02:12:53;;;;;;;1999.90;999.90;;;14.10;99.90;;;;;;4977987;28;20423;-69
2022/01/01 02:16:01;;;;;;;1999.90;999.90;;;14.10;99.90;;;;;;4979882;28;20419;-69
2022/01/01 02:18:26;;;;;;;1999.90;999.90;;;14.20;99.90;;;;;;4984018;28;20778;-69
2022/01/01 02:20:55;;;;;;;1999.90;999.90;;;14.20;99.90;;;;;;4984300;28;20405;-68
2022/01/01 02:23:23;;;;;;;1999.90;999.90;;;14.10;99.90;;;;;;4983785;28;20257;-68
2022/01/01 02:25:50;;;;;;;1999.90;999.90;;;14.20;99.90;;;;;;4983507;28;20418;-69
2022/01/01 02:28:16;;;;;;;1999.90;999.90;;;14.20;99.90;;;;;;4983961;28;20452;-68
2022/01/01 02:30:42;;;;;;;1999.90;999.90;;;14.20;99.90;;;;;;4978355;28;20462;-68
2022/01/01 02:33:08;;;;;;;1999.90;999.90;;;14.20;99.90;;;;;;4978187;28;20233;-69
2022/01/01 02:35:34;;;;;;;1999.90;999.90;;;14.20;99.90;;;;;;4977989;28;20169;-70
2022/01/01 02:37:59;;;;;;;1999.90;999.90;;;14.20;99.90;;;;;;4974993;28;20164;-68
2022/01/01 02:40:25;;;;;;;1999.90;999.90;;;14.10;99.90;;;;;;4973314;28;20204;-68
2022/01/01 02:42:51;;;;;;;1999.90;999.90;;;14.20;99.90;;;;;;4973212;28;20214;-68
2022/01/01 02:45:17;;;;;;;1999.90;999.90;;;14.20;99.90;;;;;;4973127;28;20410;-68
2022/01/01 02:47:43;;;;;;;1999.90;999.90;;;14.20;99.90;;;;;;4973222;28;20412;-68
2022/01/01 02:50:10;;;;;;;1999.90;999.90;;;14.10;99.90;;;;;;4973062;28;20274;-68
2022/01/01 02:52:36;;;;;;;1999.90;999.90;;;14.00;99.90;;;;;;4973035;28;20462;-68
2022/01/01 02:55:03;;;;;;;1999.90;999.90;;;14.00;99.90;;;;;;4972784;28;20438;-68
2022/01/01 02:57:29;;;;;;;1999.90;999.90;;;14.00;99.90;;;;;;4973327;28;20178;-68
2022/01/01 02:59:55;;;;;;;1999.90;999.90;;;14.00;99.90;;;;;;4972879;28;20408;-68
2022/01/01 03:02:21;;;;;;;1999.90;999.90;;;13.90;99.90;;;;;;4972877;28;20195;-68
2022/01/01 03:04:46;;;;;;;1999.90;999.90;;;13.90;99.90;;;;;;4972533;28;20170;-68
2022/01/01 03:07:12;;;;;;;1999.90;999.90;;;14.00;99.90;;;;;;4972749;28;20540;-68
2022/01/01 03:09:37;;;;;;;1999.90;999.90;;;14.00;99.90;;;;;;4972955;28;20725;-68
2022/01/01 03:12:05;;;;;;;1999.90;999.90;;;14.00;99.90;;;;;;4972631;28;20530;-68
2022/01/01 03:14:32;;;;;;;1999.90;999.90;;;14.10;99.90;;;;;;4972652;28;20673;-68
2022/01/01 03:16:57;;;;;;;1999.90;999.90;;;14.10;99.90;;;;;;4972743;28;20441;-68
2022/01/01 03:19:23;;;;;;;1999.90;999.90;;;14.10;99.90;;;;;;4972702;28;20939;-68
2022/01/01 03:21:49;;;;;;;1999.90;999.90;;;14.20;99.90;;;;;;4971519;28;20174;-68
2022/01/01 03:24:14;;;;;;;1999.90;999.90;;;14.20;99.90;;;;;;4972384;28;20990;-68
2022/01/01 03:26:40;;;;;;;1999.90;999.90;;;14.20;99.90;;;;;;4972694;28;20198;-68
2022/01/01 03:29:06;;;;;;;1999.90;999.90;;;14.20;99.90;;;;;;4972429;28;20182;-68
2022/01/01 03:31:32;;;;;;;1999.90;999.90;;;14.20;99.90;;;;;;4972501;28;20282;-68
2022/01/01 03:34:00;;;;;;;1999.90;999.90;;;14.10;99.90;;;;;;4972365;28;20194;-68
2022/01/01 03:36:26;;;;;;;1999.90;999.90;;;14.10;99.90;;;;;;4972282;28;20173;-69
2022/01/01 03:38:52;;;;;;;1999.90;999.90;;;14.00;99.90;;;;;;4972283;28;20408;-68
2022/01/01 03:41:18;;;;;;;1999.90;999.90;;;14.00;99.90;;;;;;4972414;28;20498;-67
2022/01/01 03:43:44;;;;;;;1999.90;999.90;;;14.10;99.90;;;;;;4972105;28;20757;-68
2022/01/01 03:46:10;;;;;;;1999.90;999.90;;;14.10;99.90;;;;;;4971951;28;20179;-68
2022/01/01 03:48:35;;;;;;;1999.90;999.90;;;14.00;99.90;;;;;;4972115;28;20410;-68
2022/01/01 03:51:01;;;;;;;1999.90;999.90;;;14.00;99.90;;;;;;4972010;28;20208;-68
2022/01/01 03:53:26;;;;;;;1999.90;999.90;;;14.00;99.90;;;;;;4971929;28;20233;-68
2022/01/01 03:55:53;;;;;;;1999.90;999.90;;;14.00;99.90;;;;;;4971861;28;20174;-68
2022/01/01 03:58:19;;;;;;;1999.90;999.90;;;14.00;99.90;;;;;;4972156;28;20170;-68
2022/01/01 04:00:45;;;;;;;1999.90;999.90;;;14.00;99.90;;;;;;4972132;28;20476;-69
2022/01/01 04:03:12;;;;;;;1999.90;999.90;;;14.00;99.90;;;;;;4971827;28;20548;-68
2022/01/01 04:05:40;;;;;;;1999.90;999.90;;;14.00;99.90;;;;;;4971596;28;20178;-68
2022/01/01 04:08:07;;;;;;;1999.90;999.90;;;14.00;99.90;;;;;;4971997;28;20756;-68
2022/01/01 04:10:33;;;;;;;1999.90;999.90;;;14.00;99.90;;;;;;4971784;28;20853;-69
2022/01/01 04:13:00;;;;;;;1999.90;999.90;;;14.00;99.90;;;;;;4971840;28;20436;-68
2022/01/01 04:15:30;;;;;;;1999.90;999.90;;;14.00;99.90;;;;;;4971450;28;20550;-68
2022/01/01 04:17:59;;;;;;;1999.90;999.90;;;14.00;99.90;;;;;;4971511;28;20421;-68
2022/01/01 04:20:26;;;;;;;1999.90;999.90;;;14.10;99.90;;;;;;4971633;28;20423;-67
2022/01/01 04:22:53;;;;;;;1999.90;999.90;;;14.00;99.90;;;;;;4971771;28;20808;-68
2022/01/01 04:25:20;;;;;;;1999.90;999.90;;;14.00;99.90;;;;;;4971296;28;20414;-68
2022/01/01 04:27:46;;;;;;;1999.90;999.90;;;14.10;99.90;;;;;;4971722;28;20439;-67
2022/01/01 04:30:12;;;;;;;1999.90;999.90;;;14.00;99.90;;;;;;4971492;28;20544;-68
2022/01/01 04:32:37;;;;;;;1999.90;999.90;;;14.00;99.90;;;;;;4971082;28;20530;-68
2022/01/01 04:35:03;;;;;;;1999.90;999.90;;;14.00;99.90;;;;;;4971462;28;20177;-68
2022/01/01 04:37:29;;;;;;;1999.90;999.90;;;14.10;99.90;;;;;;4971496;28;20187;-68
2022/01/01 04:39:59;;;;;;;1999.90;999.90;;;14.10;99.90;;;;;;4971505;28;20262;-67
2022/01/01 04:42:25;;;;;;;1999.90;999.90;;;14.10;99.90;;;;;;4971038;28;20203;-68
2022/01/01 04:44:51;;;;;;;1999.90;999.90;;;14.10;99.90;;;;;;4974339;28;20404;-68
2022/01/01 04:47:16;;;;;;;1999.90;999.90;;;14.10;99.90;;;;;;4974032;28;20765;-69
2022/01/01 04:49:42;;;;;;;1999.90;999.90;;;14.10;99.90;;;;;;4973578;28;20450;-70
2022/01/01 04:52:08;;;;;;;1999.90;999.90;;;14.10;99.90;;;;;;4973673;28;20201;-67
2022/01/01 04:54:38;;;;;;;1999.90;999.90;;;14.10;99.90;;;;;;4973449;28;20178;-69
2022/01/01 04:57:03;;;;;;;1999.90;999.90;;;14.20;99.90;;;;;;4973685;28;20182;-69
2022/01/01 04:59:29;;;;;;;1999.90;999.90;;;14.10;99.90;;;;;;4973935;28;20417;-69
2022/01/01 05:01:55;;;;;;;1999.90;999.90;;;14.10;99.90;;;;;;4972297;28;20692;-68
2022/01/01 05:04:20;;;;;;;1999.90;999.90;;;14.10;99.90;;;;;;4970920;28;20172;-68
2022/01/01 05:06:49;;;;;;;1999.90;999.90;;;14.10;99.90;;;;;;4971236;28;20175;-69
2022/01/01 05:09:18;;;;;;;1999.90;999.90;;;14.10;99.90;;;;;;4971087;28;20232;-68
2022/01/01 05:11:45;;;;;;;1999.90;999.90;;;14.10;99.90;;;;;;4970867;28;20459;-68
2022/01/01 05:14:11;;;;;;;1999.90;999.90;;;14.10;99.90;;;;;;4970442;28;20443;-68
2022/01/01 05:16:36;;;;;;;1999.90;999.90;;;14.10;99.90;;;;;;4971076;28;20411;-68
2022/01/01 05:19:03;;;;;;;1999.90;999.90;;;14.10;99.90;;;;;;4970919;28;20407;-68
2022/01/01 05:21:32;;;;;;;1999.90;999.90;;;14.00;99.90;;;;;;4970888;28;20179;-68
2022/01/01 05:24:01;;;;;;;1999.90;999.90;;;14.00;99.90;;;;;;4970858;28;20518;-68
2022/01/01 05:26:27;;;;;;;1999.90;999.90;;;14.00;99.90;;;;;;4970764;28;20431;-68
2022/01/01 05:28:53;;;;;;;1999.90;999.90;;;14.00;99.90;;;;;;4970678;28;20448;-69
2022/01/01 05:31:19;;;;;;;1999.90;999.90;;;14.00;99.90;;;;;;4970589;28;20700;-68
2022/01/01 05:33:52;;;;;;;1999.90;999.90;;;14.10;99.90;;;;;;4970745;28;20203;-68
2022/01/01 05:36:18;;;;;;;1999.90;999.90;;;14.10;99.90;;;;;;4970310;28;20490;-68
2022/01/01 05:38:45;;;;;;;1999.90;999.90;;;14.00;99.90;;;;;;4970639;28;20421;-68
2022/01/01 05:41:11;;;;;;;1999.90;999.90;;;14.10;99.90;;;;;;4970509;28;20501;-68
2022/01/01 05:43:37;;;;;;;1999.90;999.90;;;14.10;99.90;;;;;;4970525;28;20495;-68
2022/01/01 05:46:03;;;;;;;1999.90;999.90;;;14.10;99.90;;;;;;4973200;28;20881;-68
2022/01/01 05:48:29;;;;;;;1999.90;999.90;;;14.10;99.90;;;;;;4974056;28;20174;-68
2022/01/01 05:50:55;;;;;;;1999.90;999.90;;;14.00;99.90;;;;;;4973879;28;20947;-68
2022/01/01 05:53:20;;;;;;;1999.90;999.90;;;14.00;99.90;;;;;;4973918;28;20942;-68
2022/01/01 05:55:47;;;;;;;1999.90;999.90;;;14.00;99.90;;;;;;4973497;28;20233;-68
2022/01/01 05:58:13;;;;;;;1999.90;999.90;;;14.00;99.90;;;;;;4973783;28;20171;-68
2022/01/01 06:00:39;;;;;;;1999.90;999.90;;;14.00;99.90;;;;;;4974047;28;20775;-68
2022/01/01 06:03:04;;;;;;;1999.90;999.90;;;14.00;99.90;;;;;;4973695;28;20434;-67
2022/01/01 06:05:31;;;;;;;1999.90;999.90;;;14.00;99.90;;;;;;4973424;28;20163;-67
2022/01/01 06:07:58;;;;;;;1999.90;999.90;;;14.00;99.90;;;;;;4973894;28;20179;-68
2022/01/01 06:10:25;;;;;;;1999.90;999.90;;;14.00;99.90;;;;;;4973439;28;20454;-68
2022/01/01 06:12:51;;;;;;;1999.90;999.90;;;14.00;99.90;;;;;;4973510;28;20458;-67
2022/01/01 06:15:17;;;;;;;1999.90;999.90;;;14.00;99.90;;;;;;4973516;28;20404;-68
2022/01/01 06:17:43;;;;;;;1999.90;999.90;;;14.00;99.90;;;;;;4973761;28;20439;-68
2022/01/01 06:20:09;;;;;;;1999.90;999.90;;;13.90;99.90;;;;;;4973620;28;20488;-67
2022/01/01 06:22:35;;;;;;;1999.90;999.90;;;13.90;99.90;;;;;;4973817;28;20594;-68
2022/01/01 06:25:00;;;;;;;1999.90;999.90;;;14.00;99.90;;;;;;4973162;28;20490;-68
2022/01/01 06:27:26;;;;;;;1999.90;999.90;;;14.00;99.90;;;;;;4973375;28;20195;-68
2022/01/01 06:29:52;;;;;;;1999.90;999.90;;;14.00;99.90;;;;;;4973329;28;20347;-67
2022/01/01 06:32:18;;;;;;;1999.90;999.90;;;14.00;99.90;;;;;;4973256;28;20212;-68
2022/01/01 06:34:43;;;;;;;1999.90;999.90;;;14.00;99.90;;;;;;4972955;28;20489;-68
2022/01/01 06:37:09;;;;;;;1999.90;999.90;;;14.00;99.90;;;;;;4973169;28;20628;-68
2022/01/01 06:39:35;;;;;;;1999.90;999.90;;;14.00;99.90;;;;;;4972983;28;20773;-68
2022/01/01 06:42:00;;;;;;;1999.90;999.90;;;14.00;99.90;;;;;;4973013;28;20728;-68
2022/01/01 06:44:26;;;;;;;1999.90;999.90;;;14.00;99.90;;;;;;4973097;28;20169;-67
2022/01/01 06:46:53;;;;;;;1999.90;999.90;;;14.00;99.90;;;;;;4973241;28;20176;-67
2022/01/01 06:49:19;;;;;;;1999.90;999.90;;;14.00;99.90;;;;;;4973248;28;20407;-67
2022/01/01 06:51:45;;;;;;;1999.90;999.90;;;14.00;99.90;;;;;;4973023;28;20506;-68
2022/01/01 06:54:11;;;;;;;1999.90;999.90;;;14.00;99.90;;;;;;4972880;28;20419;-68
2022/01/01 06:56:36;;;;;;;1999.90;999.90;;;14.00;99.90;;;;;;4973122;28;20406;-68
2022/01/01 06:59:02;;;;;;;1999.90;999.90;;;14.00;99.90;;;;;;4973220;28;20258;-68
2022/01/01 07:01:28;;;;;;;1999.90;999.90;;;14.00;99.90;;;;;;4973257;28;20172;-68
2022/01/01 07:03:53;;;;;;;1999.90;999.90;;;14.00;99.90;;;;;;4973215;28;20481;-68
2022/01/01 07:06:19;;;;;;;1999.90;999.90;;;14.00;99.90;;;;;;4973035;28;20542;-68
2022/01/01 07:08:44;;;;;;;1999.90;999.90;;;14.00;99.90;;;;;;4973060;28;20180;-68
2022/01/01 07:11:10;;;;;;;1999.90;999.90;;;14.10;99.90;;;;;;4973112;28;20223;-68
2022/01/01 07:13:36;;;;;;;1999.90;999.90;;;14.00;99.90;;;;;;4973133;28;20205;-68
2022/01/01 07:16:01;;;;;;;1999.90;999.90;;;14.00;99.90;;;;;;4972723;28;20179;-68
2022/01/01 07:18:27;;;;;;;1999.90;999.90;;;13.90;99.90;;;;;;4972842;28;20163;-68
2022/01/01 07:20:53;;;;;;;1999.90;999.90;;;14.00;99.90;;;;;;4972743;28;20171;-68
2022/01/01 07:23:18;;;;;;;1999.90;999.90;;;13.90;99.90;;;;;;4972615;28;20243;-67
2022/01/01 07:25:44;;;;;;;1999.90;999.90;;;13.90;99.90;;;;;;4972725;28;20178;-68
2022/01/01 07:28:13;;;;;;;1999.90;999.90;;;13.80;99.90;;;;;;4972797;28;20549;-68
2022/01/01 07:30:39;;;;;;;1999.90;999.90;;;13.90;99.90;;;;;;4972957;28;20208;-68
2022/01/01 07:33:04;;;;;;;1999.90;999.90;;;13.90;99.90;;;;;;4972757;28;20874;-68
2022/01/01 07:35:30;;;;;;;1999.90;999.90;;;13.90;99.90;;;;;;4971928;28;20168;-68
2022/01/01 07:37:55;;;;;;;1999.90;999.90;;;14.00;99.90;;;;;;4972056;28;20174;-68
2022/01/01 07:40:21;;;;;;;1999.90;999.90;;;13.90;99.90;;;;;;4972059;28;20196;-68
2022/01/01 07:42:48;;;;;;;1999.90;999.90;;;14.00;99.90;;;;;;4971882;28;20685;-68
2022/01/01 07:45:13;;;;;;;1999.90;999.90;;;14.00;99.90;;;;;;4971899;28;20175;-68
2022/01/01 07:47:39;;;;;;;1999.90;999.90;;;14.00;99.90;;;;;;4971968;28;20413;-68
2022/01/01 07:50:07;;;;;;;1999.90;999.90;;;14.00;99.90;;;;;;4971836;28;20253;-68
2022/01/01 07:52:32;;;;;;;1999.90;999.90;;;14.00;99.90;;;;;;4971714;28;20195;-68
2022/01/01 07:54:58;;;;;;;1999.90;999.90;;;14.00;99.90;;;;;;4971513;28;20410;-69
2022/01/01 07:57:24;;;;;;;1999.90;999.90;;;14.00;99.90;;;;;;4971940;28;20258;-69
2022/01/01 07:59:49;;;;;;;1999.90;999.90;;;14.00;99.90;;;;;;4971925;28;20211;-68
2022/01/01 08:02:15;;;;;;;1999.90;999.90;;;14.00;99.90;;;;;;4971703;28;20207;-68
2022/01/01 08:04:41;;;;;;;1999.90;999.90;;;14.00;99.90;;;;;;4971430;28;20183;-68
2022/01/01 08:07:06;;;;;;;1999.90;999.90;;;14.00;99.90;;;;;;4971035;28;20249;-69
2022/01/01 08:09:32;;;;;;;1999.90;999.90;;;13.90;99.90;;;;;;4971556;28;20280;-68
2022/01/01 08:11:58;;;;;;;1999.90;999.90;;;13.90;99.90;;;;;;4971558;28;20183;-68
2022/01/01 08:14:23;;;;;;;1999.90;999.90;;;13.90;99.90;;;;;;4971324;28;20175;-68
2022/01/01 08:16:57;;;;;;;1999.90;999.90;;;14.00;99.90;;;;;;4971562;28;20176;-68
2022/01/01 08:19:23;;;;;;;1999.90;999.90;;;14.00;99.90;;;;;;4971590;28;20187;-68
2022/01/01 08:21:51;;;;;;;1999.90;999.90;;;14.10;99.90;;;;;;4971376;28;21154;-68
2022/01/01 08:24:17;;;;;;;1999.90;999.90;;;14.10;99.90;;;;;;4971095;28;20410;-70
2022/01/01 08:26:42;;;;;;;1999.90;999.90;;;14.00;99.90;;;;;;4973639;28;20467;-69
2022/01/01 08:29:08;;;;;;;1999.90;999.90;;;13.80;99.90;;;;;;4976976;28;20186;-69
2022/01/01 08:31:34;;;;;;;1999.90;999.90;;;13.70;99.90;;;;;;4976615;28;20209;-69
2022/01/01 08:33:59;;;;;;;1999.90;999.90;;;13.60;99.90;;;;;;4976838;28;20434;-68
2022/01/01 08:36:25;;;;;;;1999.90;999.90;;;13.60;99.90;;;;;;4977246;28;20671;-68
2022/01/01 08:38:51;;;;;;;1999.90;999.90;;;13.60;99.90;;;;;;4976212;28;20174;-69
2022/01/01 08:41:16;;;;;;;1999.90;999.90;;;13.60;99.90;;;;;;4977252;28;20179;-68
2022/01/01 08:43:42;;;;;;;1999.90;999.90;;;13.60;99.90;;;;;;4976892;28;20281;-68
2022/01/01 08:46:07;;;;;;;1999.90;999.90;;;13.60;99.90;;;;;;4976594;28;20175;-68
2022/01/01 08:48:34;;;;;;;1999.90;999.90;;;13.50;99.90;;;;;;4977121;28;20204;-68
2022/01/01 08:51:10;;;;;;;1999.90;999.90;;;13.60;99.90;;;;;;4976938;28;20195;-68
2022/01/01 08:53:36;;;;;;;1999.90;999.90;;;13.60;99.90;;;;;;4977010;28;20431;-68
2022/01/01 08:56:02;;;;;;;1999.90;999.90;;;13.70;99.90;;;;;;4976770;28;20403;-67
2022/01/01 08:58:27;;;;;;;1999.90;999.90;;;13.80;99.90;;;;;;4976585;28;20251;-68
2022/01/01 09:00:53;;;;;;;1999.90;999.90;;;13.90;99.90;;;;;;4976844;28;20187;-69
2022/01/01 09:03:19;;;;;;;1999.90;999.90;;;14.00;99.90;;;;;;4975824;28;20284;-68
2022/01/01 09:05:45;;;;;;;1999.90;999.90;;;14.10;99.90;;;;;;4970472;28;20792;-68
2022/01/01 09:08:10;;;;;;;1999.90;999.90;;;14.10;99.90;;;;;;4970718;28;20450;-68
2022/01/01 09:10:36;;;;;;;1999.90;999.90;;;14.20;99.90;;;;;;4970803;28;20553;-68
2022/01/01 09:13:02;;;;;;;1999.90;999.90;;;14.20;99.90;;;;;;4970672;28;20247;-68
2022/01/01 09:15:27;;;;;;;1999.90;999.90;;;14.20;99.90;;;;;;4970368;28;20457;-68
2022/01/01 09:17:53;;;;;;;1999.90;999.90;;;14.10;99.90;;;;;;4970590;28;20219;-68
2022/01/01 09:20:18;;;;;;;1999.90;999.90;;;14.10;99.90;;;;;;4969430;28;20177;-68
2022/01/01 09:22:44;;;;;;;1999.90;999.90;;;14.00;99.90;;;;;;4970450;28;20237;-68
2022/01/01 09:25:09;;;;;;;1999.90;999.90;;;13.80;99.90;;;;;;4970400;28;20266;-68
2022/01/01 09:27:35;;;;;;;1999.90;999.90;;;13.80;99.90;;;;;;4970663;28;20189;-70
2022/01/01 09:30:01;;;;;;;1999.90;999.90;;;13.90;99.90;;;;;;4970520;28;20559;-69
2022/01/01 09:32:26;;;;;;;1999.90;999.90;;;13.80;99.90;;;;;;4970367;28;20274;-69
2022/01/01 09:34:52;;;;;;;1999.90;999.90;;;13.80;99.90;;;;;;4970308;28;20180;-68
2022/01/01 09:37:18;;;;;;;1999.90;999.90;;;13.90;99.90;;;;;;4974137;28;20179;-69
2022/01/01 09:39:43;;;;;;;1999.90;999.90;;;14.00;99.90;;;;;;4983830;28;20265;-69
2022/01/01 09:42:11;;;;;;;1999.90;999.90;;;14.10;99.90;;;;;;4979034;28;20210;-68
2022/01/01 09:44:38;;;;;;;1999.90;999.90;;;14.20;99.90;;;;;;4970413;28;20204;-68
2022/01/01 09:47:03;;;;;;;1999.90;999.90;;;14.10;99.90;;;;;;4970817;28;20497;-69
2022/01/01 09:49:29;;;;;;;1999.90;999.90;;;14.20;99.90;;;;;;4970559;28;20504;-68
2022/01/01 09:51:55;;;;;;;1999.90;999.90;;;14.10;99.90;;;;;;4970170;28;20315;-69
2022/01/01 09:54:21;;;;;;;1999.90;999.90;;;14.20;99.90;;;;;;4969915;28;20231;-69
2022/01/01 09:56:46;;;;;;;1999.90;999.90;;;14.20;99.90;;;;;;4970102;28;20188;-69
2022/01/01 09:59:15;;;;;;;1999.90;999.90;;;14.30;99.90;;;;;;4970179;28;20202;-68
2022/01/01 10:01:40;;;;;;;1999.90;999.90;;;14.40;99.90;;;;;;4970137;28;20183;-69
2022/01/01 10:04:14;;;;;;;1999.90;999.90;;;14.50;99.90;;;;;;4969729;28;20567;-69
2022/01/01 10:06:41;;;;;;;1999.90;999.90;;;14.60;99.90;;;;;;4970841;28;20176;-69
2022/01/01 10:09:09;;;;;;;1999.90;999.90;;;14.70;99.90;;;;;;4975021;28;20416;-69
2022/01/01 10:11:35;;;;;;;1999.90;999.90;;;14.60;99.90;;;;;;4975061;28;20497;-69
2022/01/01 10:14:06;;;;;;;1999.90;999.90;;;14.50;99.90;;;;;;4974477;28;20430;-69
2022/01/01 10:16:31;;;;;;;1999.90;999.90;;;14.60;99.90;;;;;;4974437;28;20794;-69
2022/01/01 10:18:58;;;;;;;1999.90;999.90;;;14.50;99.90;;;;;;4972441;28;20470;-68
2022/01/01 10:21:29;;;;;;;1999.90;999.90;;;14.60;99.90;;;;;;4971379;28;20418;-69
2022/01/01 10:23:57;;;;;;;1999.90;999.90;;;14.60;99.90;;;;;;4969857;28;20620;-70
2022/01/01 10:29:23;;;;;;;1999.90;999.90;;;14.50;99.90;;;;;;4970542;28;20422;-68
2022/01/01 10:31:55;;;;;;;1999.90;999.90;;;14.50;99.90;;;;;;4972647;28;20446;-69
2022/01/01 10:34:24;;;;;;;1999.90;999.90;;;14.60;99.90;;;;;;4972780;28;20985;-69
2022/01/01 10:36:52;;;;;;;1999.90;999.90;;;14.50;99.90;;;;;;4973970;28;20891;-68
2022/01/01 10:39:18;;;;;;;1999.90;999.90;;;14.60;99.90;;;;;;4973223;28;20499;-67
2022/01/01 10:42:03;;;;;;;1999.90;999.90;;;14.60;99.90;;;;;;4973254;28;20426;-70
2022/01/01 10:44:38;;;;;;;1999.90;999.90;;;14.60;99.90;;;;;;4987551;23;20558;-74
2022/01/01 10:47:20;;;;;;;1999.90;999.90;;;14.70;99.90;;;;;;4972910;28;20439;-75
2022/01/01 10:52:28;;;;;;;1999.90;999.90;;;14.80;99.90;;;;;;4972682;28;21003;-75
2022/01/01 10:54:54;;;;;;;1999.90;999.90;;;14.80;99.90;;;;;;4972389;28;20793;-70
2022/01/01 10:57:24;;;;;;;1999.90;999.90;;;14.80;99.90;;;;;;4972729;28;20906;-71
2022/01/01 10:59:50;;;;;;;1999.90;999.90;;;14.70;99.90;;;;;;4972582;28;20407;-73
2022/01/01 11:02:19;;;;;;;1999.90;999.90;;;14.70;99.90;;;;;;4972397;28;20402;-73
2022/01/01 11:04:45;;;;;;;1999.90;999.90;;;14.60;99.90;;;;;;4972175;28;20427;-73
2022/01/01 11:07:10;;;;;;;1999.90;999.90;;;14.60;99.90;;;;;;4972510;28;20751;-73
2022/01/01 11:09:37;;;;;;;1999.90;999.90;;;14.60;99.90;;;;;;4972061;28;20655;-73
2022/01/01 11:12:04;;;;;;;1999.90;999.90;;;14.70;99.90;;;;;;4972288;28;20177;-73
2022/01/01 11:14:32;;;;;;;1999.90;999.90;;;14.80;99.90;;;;;;4972253;28;20454;-73
2022/01/01 11:16:59;;;;;;;1999.90;999.90;;;14.80;99.90;;;;;;4972384;28;20835;-73
2022/01/01 11:19:25;;;;;;;1999.90;999.90;;;14.80;99.90;;;;;;4972416;28;20411;-70
2022/01/01 11:21:53;;;;;;;1999.90;999.90;;;14.90;99.90;;;;;;4972167;28;20825;-71
2022/01/01 11:24:20;;;;;;;1999.90;999.90;;;15.00;99.90;;;;;;4971839;28;20516;-70
2022/01/01 11:26:47;;;;;;;1999.90;999.90;;;15.20;99.90;;;;;;4972214;28;20409;-71
2022/01/01 11:29:16;;;;;;;1999.90;999.90;;;15.50;99.90;;;;;;4972163;28;20412;-73
2022/01/01 11:31:42;;;;;;;1999.90;999.90;;;15.70;99.90;;;;;;4972025;28;20460;-71
2022/01/01 11:34:09;;;;;;;1999.90;999.90;;;15.80;99.90;;;;;;4967250;28;20430;-71
2022/01/01 11:36:35;;;;;;;1999.90;999.90;;;15.90;99.90;;;;;;4969537;28;20405;-71
2022/01/01 11:39:05;;;;;;;1999.90;999.90;;;16.00;99.90;;;;;;4970278;28;20928;-71
2022/01/01 11:41:49;;;;;;;1999.90;999.90;;;16.20;99.90;;;;;;4969620;28;20461;-70
2022/01/01 11:44:27;;;;;;;1999.90;999.90;;;16.60;99.90;;;;;;4969787;28;20476;-71
2022/01/01 11:46:59;;;;;;;1999.90;999.90;;;17.00;99.90;;;;;;4970420;28;20411;-70
2022/01/01 11:49:26;;;;;;;1999.90;999.90;;;17.40;99.90;;;;;;4969913;28;20440;-70
2022/01/01 11:51:54;;;;;;;1999.90;999.90;;;17.60;99.90;;;;;;4970155;28;20540;-72
2022/01/01 11:54:22;;;;;;;1999.90;999.90;;;17.90;99.90;;;;;;4969681;28;20433;-71
2022/01/01 11:56:55;;;;;;;1999.90;999.90;;;18.00;99.90;;;;;;4969864;28;20409;-72
2022/01/01 11:59:32;;;;;;;1999.90;999.90;;;17.90;99.90;;;;;;4970309;28;21153;-71
2022/01/01 12:02:11;;;;;;;1999.90;999.90;;;17.90;99.90;;;;;;4970011;28;20478;-70
2022/01/01 12:04:39;;;;;;;1999.90;999.90;;;17.90;99.90;;;;;;4969259;28;20440;-71